Terminal Aerodrome Forecast
Issued by NWS Wilmington, OH

Current Version | Previous Version | Text Only | Print | Product List | Glossary Off
Versions: 1 2 3 4 5 6 7 8 9 10 11 12 13 14 15 16 17 18 19 20 21 22

000
FTUS41 KILN 251200 AAA
TAFCMH
TAF AMD
KCMH 251222Z 2512/2612 12010KT 4SM -SHRA SCT015 OVC040
     FM251300 18010G20KT P6SM OVC035
      TEMPO 2513/2514 5SM BR OVC025
     FM251500 21013G23KT P6SM BKN035
     FM252100 19008KT P6SM SCT050 BKN150
     FM261000 34006KT 4SM -SHRA VCTS OVC028CB=

USA.gov is the U.S. government's official web portal to all federal, state and local government web resources and services.